Time;durP1;ratioP1;P1;durP2;ratioP2;P2;SDS_P1;SDS_P2;PMS_P1;PMS_P2;Temp;Humidity;BMP_temperature;BMP_pressure;BME280_temperature;BME280_humidity;BME280_pressure;Samples;Min_cycle;Max_cycle;Signal;HPM_P1;HPM_P2
2023/10/02 00:00:43;;;;;;;711.95;680.42;;;;;;;22.52;54.49;99291.81;4905853;28;104233;-62
2023/10/02 00:03:11;;;;;;;637.45;608.97;;;;;;;22.80;53.57;99294.94;4918038;28;102615;-62
2023/10/02 00:05:50;;;;;;;587.78;562.17;;;;;;;22.97;53.08;99291.19;4911423;28;102715;-62
2023/10/02 00:08:42;;;;;;;671.23;640.90;;;;;;;22.75;53.52;99286.56;4911291;28;104974;-62
2023/10/02 00:14:19;;;;;;;741.88;708.33;;;;;;;22.21;55.05;99293.56;4907659;28;103733;-62
2023/10/02 00:17:03;;;;;;;668.72;638.65;;;;;;;22.74;53.36;99287.56;4902014;28;103678;-62
2023/10/02 00:19:35;;;;;;;785.30;748.47;;;;;;;22.01;55.48;99286.88;4905381;28;103159;-62
2023/10/02 00:22:08;;;;;;;818.73;778.03;;;;;;;21.63;57.06;99288.34;4903482;28;103275;-62
2023/10/02 00:24:37;;;;;;;818.72;774.30;;;;;;;21.59;57.88;99297.72;4908316;28;104908;-61
2023/10/02 00:27:07;;;;;;;694.83;660.90;;;;;;;22.15;55.43;99295.06;4910322;28;104107;-62
2023/10/02 00:29:50;;;;;;;821.17;776.17;;;;;;;21.91;57.00;99293.25;4907774;28;103352;-62
2023/10/02 00:32:20;;;;;;;801.88;759.97;;;;;;;22.22;55.91;99296.09;4900120;28;104189;-62
2023/10/02 00:34:50;;;;;;;750.03;712.50;;;;;;;22.46;55.11;99295.19;4902311;28;102658;-62
2023/10/02 00:37:20;;;;;;;746.45;709.83;;;;;;;22.76;54.39;99290.94;4904262;28;102737;-62
2023/10/02 00:39:51;;;;;;;748.93;712.53;;;;;;;22.77;53.94;99285.38;4924380;28;104642;-62
2023/10/02 00:42:24;;;;;;;788.90;748.50;;;;;;;21.87;56.15;99283.84;4903520;28;103492;-63
2023/10/02 00:44:54;;;;;;;998.47;939.53;;;;;;;21.12;60.09;99292.94;4908216;28;102846;-62
2023/10/02 00:47:38;;;;;;;793.03;751.92;;;;;;;22.10;56.91;99288.53;4914045;28;104175;-62
2023/10/02 00:50:10;;;;;;;840.40;794.10;;;;;;;21.89;57.94;99279.13;4908395;28;104537;-62
2023/10/02 00:52:42;;;;;;;835.30;789.75;;;;;;;21.86;57.76;99278.59;4915692;28;104139;-62
2023/10/02 00:55:12;;;;;;;794.20;753.37;;;;;;;22.30;56.38;99281.78;4899043;28;103014;-62
2023/10/02 00:57:42;;;;;;;841.45;794.95;;;;;;;21.66;57.93;99285.31;4904342;28;103875;-62
2023/10/02 01:00:21;;;;;;;908.65;856.22;;;;;;;21.07;60.16;99278.28;4902059;28;104626;-62
2023/10/02 01:02:51;;;;;;;828.00;781.88;;;;;;;21.62;58.29;99275.88;4908172;28;105885;-62
2023/10/02 01:05:30;;;;;;;960.03;902.87;;;;;;;21.60;59.07;99277.91;4917843;28;102734;-62
2023/10/02 01:08:00;;;;;;;775.33;736.00;;;;;;;22.38;55.47;99271.84;4902566;28;104111;-62
2023/10/02 01:10:30;;;;;;;755.03;716.55;;;;;;;22.72;55.08;99270.75;4907619;28;103783;-62
2023/10/02 01:13:05;;;;;;;806.13;762.17;;;;;;;22.30;56.57;99265.63;4903783;28;103507;-62
2023/10/02 01:15:36;;;;;;;892.28;839.90;;;;;;;21.05;59.98;99275.75;4904586;28;102831;-62
2023/10/02 01:18:22;;;;;;;919.93;866.57;;;;;;;21.91;58.19;99274.44;4904909;28;103172;-63
2023/10/02 01:20:54;;;;;;;781.15;741.25;;;;;;;22.31;56.41;99278.09;4905653;28;103817;-62
2023/10/02 01:23:25;;;;;;;783.20;743.45;;;;;;;22.54;55.60;99265.56;4907211;28;103180;-62
2023/10/02 01:25:58;;;;;;;805.08;764.65;;;;;;;22.77;54.66;99268.38;4902613;28;103047;-62
2023/10/02 01:28:30;;;;;;;813.13;772.28;;;;;;;22.65;55.08;99276.00;4909985;28;104300;-62
2023/10/02 01:31:05;;;;;;;814.30;773.25;;;;;;;22.53;54.70;99267.44;4903929;28;104461;-62
2023/10/02 01:33:46;;;;;;;866.00;818.13;;;;;;;22.01;57.05;99266.16;4907995;28;104181;-63
2023/10/02 01:36:14;;;;;;;999.63;939.47;;;;;;;21.31;59.74;99268.47;4903092;28;103027;-62
2023/10/02 01:38:44;;;;;;;948.03;892.60;;;;;;;21.74;58.47;99274.56;4914728;28;102646;-62
2023/10/02 01:41:14;;;;;;;838.60;792.23;;;;;;;22.19;57.06;99268.69;4923962;28;103880;-62
2023/10/02 01:43:45;;;;;;;904.50;851.70;;;;;;;21.61;59.11;99269.69;4921617;28;103182;-62
2023/10/02 01:46:17;;;;;;;790.05;749.75;;;;;;;22.32;55.94;99267.13;4903058;28;102658;-62
2023/10/02 01:48:48;;;;;;;808.03;767.60;;;;;;;22.39;55.28;99270.00;4904217;28;102842;-62
2023/10/02 01:51:27;;;;;;;786.05;747.65;;;;;;;22.77;54.88;99266.50;4907312;28;104211;-62
2023/10/02 01:53:57;;;;;;;780.45;742.53;;;;;;;22.53;54.78;99264.72;4919414;28;104212;-61
2023/10/02 01:56:29;;;;;;;787.93;751.13;;;;;;;22.86;54.08;99268.16;4908580;28;103269;-61
2023/10/02 01:59:08;;;;;;;805.40;765.60;;;;;;;22.78;54.36;99270.91;4906402;28;102993;-63
2023/10/02 02:01:46;;;;;;;817.65;778.40;;;;;;;22.68;54.35;99264.06;4906744;28;104342;-62
2023/10/02 02:04:15;;;;;;;781.72;744.20;;;;;;;22.69;54.35;99265.72;4912383;28;103340;-62
2023/10/02 02:06:52;;;;;;;775.03;738.43;;;;;;;22.83;54.14;99264.97;4910962;28;102843;-62
2023/10/02 02:09:24;;;;;;;799.72;761.80;;;;;;;22.79;54.20;99266.34;4908190;28;102648;-61
2023/10/02 02:12:06;;;;;;;863.70;816.42;;;;;;;21.98;56.56;99266.50;4906797;28;104058;-61
2023/10/02 02:14:40;;;;;;;885.67;838.50;;;;;;;22.07;56.50;99265.50;4901799;28;104267;-62
2023/10/02 02:17:11;;;;;;;957.47;902.38;;;;;;;21.51;58.37;99269.00;4905236;28;102740;-62
2023/10/02 02:19:48;;;;;;;1044.10;981.75;;;;;;;21.68;58.40;99264.47;4905064;28;103987;-62
2023/10/02 02:22:17;;;;;;;913.17;860.17;;;;;;;21.79;58.07;99259.59;4909515;28;103817;-61
2023/10/02 02:24:48;;;;;;;1039.70;974.27;;;;;;;20.89;61.13;99266.78;4905713;28;103549;-62
2023/10/02 02:27:19;;;;;;;854.47;809.03;;;;;;;21.98;57.69;99260.31;4909983;28;103053;-61
2023/10/02 02:29:48;;;;;;;828.28;785.70;;;;;;;21.89;56.59;99267.53;4908333;28;104142;-61
2023/10/02 02:32:19;;;;;;;929.22;875.63;;;;;;;21.24;59.53;99266.59;4911831;28;104153;-62
2023/10/02 02:34:48;;;;;;;869.10;823.60;;;;;;;21.87;57.17;99264.16;4910682;28;103470;-62
2023/10/02 02:37:28;;;;;;;866.42;820.20;;;;;;;22.17;56.29;99271.56;4906836;28;102644;-62
2023/10/02 02:40:22;;;;;;;996.83;939.70;;;;;;;21.63;58.93;99266.81;4911312;28;104553;-63
2023/10/02 02:42:50;;;;;;;1003.10;944.60;;;;;;;21.70;58.48;99268.66;4909554;28;103198;-62
2023/10/02 02:45:28;;;;;;;912.10;862.10;;;;;;;21.90;57.90;99269.19;4906781;28;106394;-62
2023/10/02 02:48:03;;;;;;;844.88;801.05;;;;;;;22.00;56.95;99269.88;4903926;28;102626;-62
2023/10/02 02:50:34;;;;;;;1043.93;979.73;;;;;;;21.01;59.97;99262.81;4915235;28;103888;-65
2023/10/02 02:56:10;;;;;;;961.50;904.23;;;;;;;20.79;61.92;99267.78;4932045;28;103333;-65
2023/10/02 02:58:39;;;;;;;980.75;920.67;;;;;;;20.89;61.56;99272.16;4903677;28;102676;-66
2023/10/02 03:01:13;;;;;;;907.37;854.90;;;;;;;21.49;59.73;99267.47;4907188;28;102896;-66
2023/10/02 03:03:42;;;;;;;846.78;801.10;;;;;;;21.47;59.05;99267.66;4909056;28;103101;-62
2023/10/02 03:06:18;;;;;;;920.42;865.97;;;;;;;21.41;59.67;99262.09;4903709;28;102970;-63
2023/10/02 03:08:46;;;;;;;861.90;814.05;;;;;;;21.33;59.04;99266.44;4902586;28;103650;-62
2023/10/02 03:11:19;;;;;;;932.50;877.63;;;;;;;21.00;60.86;99270.03;4907660;28;103735;-65
2023/10/02 03:13:49;;;;;;;969.85;908.75;;;;;;;20.45;63.98;99266.09;4913089;28;103650;-66
2023/10/02 03:16:28;;;;;;;1015.97;953.80;;;;;;;20.23;64.68;99267.47;4915426;28;104424;-66
2023/10/02 03:18:57;;;;;;;986.75;926.15;;;;;;;20.26;64.51;99269.00;4909445;28;102928;-65
2023/10/02 03:21:25;;;;;;;1026.80;962.28;;;;;;;20.07;66.95;99270.03;4903426;28;102822;-65
2023/10/02 03:23:58;;;;;;;1013.15;949.83;;;;;;;20.20;65.47;99265.09;4914287;28;103171;-65
2023/10/02 03:26:37;;;;;;;1023.08;959.53;;;;;;;19.62;67.95;99272.88;4910154;28;103283;-65
2023/10/02 03:29:11;;;;;;;1022.60;959.60;;;;;;;20.21;65.58;99275.66;4904207;28;102714;-66
2023/10/02 03:31:49;;;;;;;1014.03;952.27;;;;;;;20.08;65.69;99269.88;4906063;28;103323;-62
2023/10/02 03:34:33;;;;;;;977.60;918.63;;;;;;;20.50;63.44;99269.97;4906193;28;103304;-62
2023/10/02 03:37:13;;;;;;;1023.13;960.70;;;;;;;19.75;66.39;99284.03;4903855;28;103203;-65
2023/10/02 03:39:52;;;;;;;1041.60;977.37;;;;;;;19.84;66.81;99280.44;4906465;28;102971;-65
2023/10/02 03:42:22;;;;;;;1016.20;954.43;;;;;;;20.20;64.74;99287.41;4908753;28;102991;-65
2023/10/02 03:44:56;;;;;;;1028.47;966.20;;;;;;;19.60;66.96;99281.03;4907796;28;103732;-65
2023/10/02 03:47:24;;;;;;;1065.43;998.23;;;;;;;18.74;71.88;99288.78;4907836;28;103250;-61
2023/10/02 03:50:00;;;;;;;1040.45;974.67;;;;;;;18.78;71.09;99287.50;4912489;28;103013;-64
2023/10/02 03:52:30;;;;;;;1058.57;989.55;;;;;;;18.29;74.18;99289.47;4908423;28;102655;-65
2023/10/02 03:55:14;;;;;;;1119.28;999.90;;;;;;;18.54;73.36;99290.69;4909342;28;103293;-62
2023/10/02 03:57:50;;;;;;;1120.37;999.90;;;;;;;18.66;71.85;99289.53;4905192;28;104178;-65
2023/10/02 04:00:22;;;;;;;1105.57;999.90;;;;;;;18.59;72.67;99291.09;4901503;28;102986;-64
2023/10/02 04:02:56;;;;;;;1080.93;999.90;;;;;;;18.96;70.83;99291.06;4909198;28;102761;-64
2023/10/02 04:05:42;;;;;;;1087.10;999.90;;;;;;;19.11;69.38;99286.88;4910489;28;103312;-61
2023/10/02 04:08:21;;;;;;;1051.60;994.35;;;;;;;19.30;68.54;99280.53;4910078;28;103377;-64
2023/10/02 04:10:56;;;;;;;1004.20;952.92;;;;;;;20.52;63.75;99284.06;4904857;28;102714;-61
2023/10/02 04:13:31;;;;;;;872.53;830.65;;;;;;;21.05;60.46;99281.09;4915347;28;103889;-64
2023/10/02 04:18:49;;;;;;;959.72;914.22;;;;;;;21.52;57.28;99276.06;4904677;28;103799;-64
2023/10/02 04:21:22;;;;;;;936.50;892.95;;;;;;;21.62;56.20;99275.88;4915181;28;103038;-61
2023/10/02 04:23:53;;;;;;;944.60;899.90;;;;;;;21.61;55.53;99271.53;4903846;28;103675;-64
2023/10/02 04:26:22;;;;;;;961.03;914.13;;;;;;;21.21;55.61;99272.31;4910709;28;104433;-64
2023/10/02 04:28:55;;;;;;;1019.78;967.90;;;;;;;20.61;57.43;99282.28;4907092;28;103236;-64
2023/10/02 04:31:27;;;;;;;1000.95;950.35;;;;;;;20.96;57.18;99276.75;4909353;28;103796;-64
2023/10/02 04:34:15;;;;;;;1049.78;994.38;;;;;;;20.58;59.25;99277.22;4908597;28;102938;-64
2023/10/02 04:36:44;;;;;;;1054.25;995.55;;;;;;;20.28;61.24;99277.72;4902277;28;103870;-61
2023/10/02 04:44:56;;;;;;;1040.10;986.20;;;;;;;20.86;57.07;99281.38;5107841;27;103735;-61
2023/10/02 04:47:26;;;;;;;1010.00;959.50;;;;;;;21.32;56.35;99278.22;5093264;27;103499;-61
2023/10/02 04:53:04;;;;;;;1054.38;997.85;;;;;;;19.58;62.29;99290.25;5074080;27;103487;-61
2023/10/02 04:55:41;;;;;;;1034.28;978.83;;;;;;;18.63;68.43;99289.81;5094872;27;102701;-62
2023/10/02 04:58:14;;;;;;;1036.07;979.22;;;;;;;18.81;68.85;99290.69;5093320;27;102635;-61
2023/10/02 05:01:19;;;;;;;1013.88;960.67;;;;;;;19.12;67.44;99283.19;5073752;27;104272;-61
2023/10/02 05:03:36;;;;;;;1034.68;978.58;;;;;;;19.15;67.75;99295.44;5093232;27;104091;-64
2023/10/02 05:06:06;;;;;;;996.20;943.78;;;;;;;19.32;65.72;99283.91;5094449;27;102676;-64
2023/10/02 05:08:35;;;;;;;1012.87;960.33;;;;;;;19.29;66.55;99285.06;5078117;27;104445;-64
2023/10/02 05:11:07;;;;;;;986.70;936.28;;;;;;;19.35;65.46;99288.97;5075750;27;104234;-64
2023/10/02 05:13:53;;;;;;;1005.50;952.73;;;;;;;19.24;68.12;99290.03;5075340;27;104174;-64
2023/10/02 05:16:32;;;;;;;963.13;915.23;;;;;;;20.16;63.99;99285.16;5097046;27;102876;-65
2023/10/02 05:19:04;;;;;;;882.45;839.20;;;;;;;20.56;61.57;99281.94;5078985;27;103185;-65
2023/10/02 05:21:39;;;;;;;783.97;745.83;;;;;;;21.06;59.13;99279.28;5091789;27;103532;-65
2023/10/02 05:24:11;;;;;;;908.55;861.83;;;;;;;20.03;62.02;99290.13;5090605;27;105184;-61
2023/10/02 05:26:41;;;;;;;952.58;905.78;;;;;;;19.77;63.84;99292.75;5090306;27;102995;-61
2023/10/02 05:29:14;;;;;;;974.67;926.65;;;;;;;20.07;63.68;99291.50;5073859;27;104061;-61
2023/10/02 05:31:45;;;;;;;953.60;906.28;;;;;;;20.23;62.75;99297.81;5090367;27;103282;-61
2023/10/02 05:34:21;;;;;;;968.07;920.20;;;;;;;20.26;61.79;99294.00;5075178;27;104384;-62
2023/10/02 05:37:11;;;;;;;935.60;890.83;;;;;;;20.73;60.94;99300.66;5070973;27;103057;-66
2023/10/02 05:39:40;;;;;;;846.57;807.37;;;;;;;21.14;59.17;99293.59;5078465;27;104171;-65
2023/10/02 05:42:13;;;;;;;848.28;807.65;;;;;;;20.69;58.54;99298.41;5097178;27;103257;-66
2023/10/02 05:44:43;;;;;;;865.87;825.83;;;;;;;21.02;59.34;99291.38;5091814;27;104099;-62
2023/10/02 05:47:15;;;;;;;852.75;812.22;;;;;;;21.28;57.67;99297.50;5092865;27;102795;-62
2023/10/02 05:49:47;;;;;;;943.88;896.90;;;;;;;20.30;60.82;99299.88;5094448;27;103067;-66
2023/10/02 05:52:19;;;;;;;970.70;922.22;;;;;;;20.15;62.09;99299.59;5094331;27;104124;-65
2023/10/02 05:54:53;;;;;;;959.53;912.60;;;;;;;20.78;61.13;99297.47;5085539;27;104469;-66
2023/10/02 05:57:22;;;;;;;882.90;841.78;;;;;;;21.03;59.82;99299.25;5059483;27;102852;-65
2023/10/02 05:59:54;;;;;;;864.88;825.10;;;;;;;20.88;59.73;99297.34;5076677;27;102720;-65
2023/10/02 06:02:25;;;;;;;902.93;860.13;;;;;;;20.62;60.89;99302.75;5059048;27;103290;-65
2023/10/02 06:05:07;;;;;;;867.22;827.60;;;;;;;21.06;60.71;99304.28;5071786;27;103282;-65
2023/10/02 06:07:43;;;;;;;819.20;781.53;;;;;;;21.30;59.12;99301.72;5070397;27;102709;-63
2023/10/02 06:10:25;;;;;;;796.22;758.92;;;;;;;21.64;57.84;99296.22;5070507;27;103218;-62
2023/10/02 06:13:04;;;;;;;785.13;749.08;;;;;;;21.37;57.47;99297.38;5063236;27;103761;-62
2023/10/02 06:15:47;;;;;;;755.88;722.20;;;;;;;21.84;57.17;99296.75;5077770;27;103224;-64
2023/10/02 06:18:27;;;;;;;743.30;710.17;;;;;;;22.02;56.28;99292.06;5073789;27;102803;-66
2023/10/02 06:21:00;;;;;;;756.28;722.75;;;;;;;21.80;57.19;99306.16;5074574;27;102870;-66
2023/10/02 06:23:37;;;;;;;755.03;721.42;;;;;;;21.94;57.25;99297.47;5078215;27;104555;-64
2023/10/02 06:26:09;;;;;;;741.03;707.93;;;;;;;21.92;56.88;99310.25;5056195;27;104754;-66
2023/10/02 06:28:38;;;;;;;774.78;739.45;;;;;;;22.23;56.58;99307.72;5070734;27;103125;-66
2023/10/02 06:31:06;;;;;;;800.58;764.67;;;;;;;21.74;58.45;99302.28;5073662;27;103859;-66
2023/10/02 06:33:36;;;;;;;780.95;746.20;;;;;;;21.76;57.87;99305.66;5072178;27;103442;-63
2023/10/02 06:36:07;;;;;;;804.85;769.20;;;;;;;21.70;58.22;99310.84;5073845;27;103875;-64
2023/10/02 06:38:36;;;;;;;814.97;778.15;;;;;;;21.63;58.83;99309.84;5074330;27;102784;-64
2023/10/02 06:41:08;;;;;;;796.95;760.80;;;;;;;21.62;58.68;99308.16;5080837;27;103950;-65
2023/10/02 06:43:37;;;;;;;805.10;768.85;;;;;;;21.57;58.87;99310.50;5073754;27;103380;-62
2023/10/02 06:46:09;;;;;;;793.05;757.13;;;;;;;21.11;60.01;99315.41;5054079;27;103955;-64
2023/10/02 06:48:43;;;;;;;760.90;727.33;;;;;;;22.04;57.63;99313.41;5073547;27;103972;-64
2023/10/02 06:51:13;;;;;;;801.40;765.40;;;;;;;21.69;59.34;99314.56;5070458;27;104046;-62
2023/10/02 06:53:42;;;;;;;767.95;733.70;;;;;;;21.90;57.98;99306.84;5073398;27;103315;-62
2023/10/02 06:56:11;;;;;;;769.83;735.55;;;;;;;22.25;57.76;99311.91;5057735;27;104206;-63
2023/10/02 06:58:49;;;;;;;761.83;728.25;;;;;;;22.09;57.85;99308.38;5073862;27;102617;-61
2023/10/02 07:01:19;;;;;;;739.97;707.57;;;;;;;22.60;56.39;99317.91;5073410;27;104017;-64
2023/10/02 07:03:51;;;;;;;764.65;732.13;;;;;;;23.04;55.03;99308.34;5068224;27;103946;-65
2023/10/02 07:06:21;;;;;;;771.17;737.47;;;;;;;23.12;55.05;99311.00;5068492;27;103334;-65
2023/10/02 07:09:09;;;;;;;740.73;709.37;;;;;;;23.49;53.78;99313.88;5075877;27;102960;-65
2023/10/02 07:11:39;;;;;;;775.60;742.10;;;;;;;23.69;53.74;99310.69;5078266;27;102863;-65
2023/10/02 07:14:09;;;;;;;656.97;629.80;;;;;;;23.87;53.32;99311.22;5079479;27;104228;-60
2023/10/02 07:16:38;;;;;;;625.83;600.67;;;;;;;24.36;52.16;99301.72;5060713;27;103556;-61
2023/10/02 07:19:10;;;;;;;538.20;517.30;;;;;;;24.43;51.69;99302.66;5078384;27;102877;-60
2023/10/02 07:21:40;;;;;;;392.17;376.50;;;;;;;25.03;50.35;99305.19;5077827;27;103888;-60
2023/10/02 07:24:27;;;;;;;325.85;312.58;;;;;;;25.21;50.19;99296.66;5056088;27;103259;-60
2023/10/02 07:26:56;;;;;;;335.65;321.50;;;;;;;24.75;50.59;99302.31;5069084;27;103175;-63
2023/10/02 07:29:37;;;;;;;267.43;255.73;;;;;;;24.97;49.99;99299.69;5078589;27;103024;-65
2023/10/02 07:32:07;;;;;;;259.33;248.07;;;;;;;25.20;49.74;99301.25;5061775;27;102782;-64
2023/10/02 07:34:38;;;;;;;203.60;193.80;;;;;;;25.79;47.98;99293.81;5077386;27;103394;-65
2023/10/02 07:37:07;;;;;;;193.75;184.30;;;;;;;25.69;48.32;99295.16;5057949;27;103273;-65
2023/10/02 07:39:36;;;;;;;175.88;167.27;;;;;;;26.29;47.20;99294.69;5058586;27;102835;-65
2023/10/02 07:42:09;;;;;;;168.32;159.73;;;;;;;25.98;47.56;99288.78;5074491;27;102724;-65
2023/10/02 07:44:38;;;;;;;180.57;171.23;;;;;;;26.05;47.44;99295.09;5076864;27;103159;-65
2023/10/02 07:47:11;;;;;;;172.18;162.95;;;;;;;26.34;47.24;99293.06;5059727;27;103296;-65
2023/10/02 07:49:44;;;;;;;182.45;172.95;;;;;;;26.37;46.83;99297.25;5073641;27;102644;-65
2023/10/02 07:52:13;;;;;;;181.07;171.55;;;;;;;26.48;47.41;99294.84;5076415;27;104061;-64
2023/10/02 07:54:49;;;;;;;173.27;164.00;;;;;;;27.13;46.08;99284.59;5077692;27;103740;-65
2023/10/02 07:57:18;;;;;;;183.52;173.73;;;;;;;27.38;45.32;99285.72;5056318;27;104196;-66
2023/10/02 07:59:47;;;;;;;188.73;178.88;;;;;;;27.95;44.83;99290.66;5076061;27;102860;-62
2023/10/02 08:02:26;;;;;;;185.83;175.90;;;;;;;28.03;44.17;99294.03;5072886;27;103776;-61
2023/10/02 08:04:59;;;;;;;189.70;179.45;;;;;;;28.02;44.47;99289.63;5074845;27;103329;-64
2023/10/02 08:07:28;;;;;;;188.07;177.90;;;;;;;28.24;44.03;99289.47;5075112;27;103321;-66
2023/10/02 08:10:11;;;;;;;211.35;199.40;;;;;;;28.04;44.53;99295.69;5076823;27;102929;-65
2023/10/02 08:12:54;;;;;;;245.73;232.50;;;;;;;29.55;42.35;99289.09;5078660;27;103862;-62
2023/10/02 08:15:27;;;;;;;233.52;220.70;;;;;;;29.04;42.17;99287.22;5078674;27;104174;-66
2023/10/02 08:18:04;;;;;;;202.37;191.40;;;;;;;29.10;42.61;99291.81;5057070;27;103436;-62
2023/10/02 08:20:37;;;;;;;214.00;202.70;;;;;;;29.02;43.73;99285.78;5073521;27;104572;-63
2023/10/02 08:23:21;;;;;;;228.80;217.52;;;;;;;29.58;42.43;99283.22;5072287;27;102669;-61
2023/10/02 08:26:02;;;;;;;226.45;215.68;;;;;;;30.09;41.76;99280.38;5071480;27;104784;-61
2023/10/02 08:28:37;;;;;;;174.13;165.75;;;;;;;29.62;41.25;99279.00;5069107;27;103178;-61
2023/10/02 08:31:13;;;;;;;159.70;152.13;;;;;;;29.51;41.91;99277.81;5069620;27;103281;-61
2023/10/02 08:33:43;;;;;;;146.30;139.33;;;;;;;30.11;40.80;99267.38;5068329;27;102661;-61
2023/10/02 08:36:31;;;;;;;139.10;132.32;;;;;;;29.91;40.93;99277.56;5069916;27;103966;-60
2023/10/02 08:39:00;;;;;;;134.90;128.27;;;;;;;30.60;40.86;99271.97;5052888;27;104320;-60
2023/10/02 08:41:46;;;;;;;145.37;138.17;;;;;;;30.31;40.21;99268.88;5072804;27;102975;-60
2023/10/02 08:44:17;;;;;;;154.73;147.43;;;;;;;30.36;40.16;99271.75;5052617;27;104082;-62
2023/10/02 08:46:45;;;;;;;183.70;175.88;;;;;;;31.09;39.63;99260.94;5071472;27;104313;-61
2023/10/02 08:49:13;;;;;;;224.68;215.30;;;;;;;31.06;40.06;99266.84;5075109;27;103232;-65
2023/10/02 08:51:49;;;;;;;220.05;211.27;;;;;;;30.70;40.32;99267.66;5074070;27;104670;-65
2023/10/02 08:54:18;;;;;;;215.95;206.90;;;;;;;31.39;38.44;99261.78;5059513;27;104227;-65
2023/10/02 08:57:02;;;;;;;239.02;229.23;;;;;;;31.57;38.44;99260.94;5056148;27;104593;-65
2023/10/02 08:59:35;;;;;;;215.75;206.85;;;;;;;31.97;37.55;99259.25;5055087;27;103120;-65
2023/10/02 09:02:08;;;;;;;199.35;190.88;;;;;;;32.17;38.60;99264.41;5078622;27;103333;-65
2023/10/02 09:04:36;;;;;;;179.48;171.68;;;;;;;32.63;37.45;99264.47;5077889;27;103574;-65
2023/10/02 09:07:21;;;;;;;184.97;176.77;;;;;;;32.25;37.68;99255.06;5078194;27;104152;-65
2023/10/02 09:10:12;;;;;;;181.23;173.18;;;;;;;31.54;40.15;99264.97;5072250;27;103297;-65
2023/10/02 09:12:52;;;;;;;180.43;172.33;;;;;;;31.94;37.19;99258.91;5074768;27;103974;-65
2023/10/02 09:15:27;;;;;;;214.60;205.50;;;;;;;31.86;38.24;99261.97;5060399;27;103013;-64
2023/10/02 09:18:19;;;;;;;304.42;292.10;;;;;;;32.72;36.57;99259.47;5077219;27;103052;-65
2023/10/02 09:20:53;;;;;;;259.88;249.07;;;;;;;33.33;36.66;99250.63;5073612;27;103269;-64
2023/10/02 09:23:27;;;;;;;352.80;337.98;;;;;;;32.13;37.31;99257.78;5073787;27;102922;-65
2023/10/02 09:26:16;;;;;;;302.65;290.27;;;;;;;32.12;37.94;99239.69;5058734;27;104146;-64
2023/10/02 09:28:58;;;;;;;318.97;306.13;;;;;;;31.97;36.96;99247.50;5056956;27;104561;-64
2023/10/02 09:31:28;;;;;;;312.23;299.67;;;;;;;32.45;37.18;99242.66;5082018;27;102955;-64
2023/10/02 09:33:56;;;;;;;303.13;290.85;;;;;;;32.30;38.08;99239.59;5085086;27;102637;-64
2023/10/02 09:36:52;;;;;;;328.48;315.33;;;;;;;32.42;36.78;99240.41;5061052;27;103133;-64
2023/10/02 09:39:42;;;;;;;438.83;420.63;;;;;;;33.26;36.52;99237.06;5084675;27;104179;-65
2023/10/02 09:42:10;;;;;;;407.38;390.38;;;;;;;32.78;36.49;99238.50;5067139;27;104215;-65
2023/10/02 09:44:42;;;;;;;478.77;458.73;;;;;;;33.00;35.71;99234.06;5085360;27;102625;-65
2023/10/02 09:47:11;;;;;;;492.23;471.65;;;;;;;32.93;37.02;99236.91;5081522;27;102841;-65
2023/10/02 09:49:48;;;;;;;592.47;566.88;;;;;;;33.16;35.59;99225.09;5084669;27;103178;-65
2023/10/02 09:52:33;;;;;;;435.85;416.90;;;;;;;32.20;36.90;99224.88;5065032;27;103167;-65
2023/10/02 09:55:08;;;;;;;531.22;507.33;;;;;;;33.18;35.50;99225.72;5084929;27;102724;-65
2023/10/02 09:57:48;;;;;;;478.33;457.25;;;;;;;32.36;35.88;99222.25;5084086;27;104033;-65
2023/10/02 10:03:30;;;;;;;628.97;600.13;;;;;;;32.36;35.89;99219.53;5079013;27;103171;-65
2023/10/02 10:06:27;;;;;;;689.27;657.70;;;;;;;34.24;34.26;99205.69;5074745;27;102972;-65
2023/10/02 10:09:25;;;;;;;602.33;575.17;;;;;;;33.68;34.89;99204.78;5060134;27;102676;-65
2023/10/02 10:14:42;;;;;;;673.47;643.13;;;;;;;34.02;34.44;99202.03;5068904;27;104421;-64
2023/10/02 10:17:50;;;;;;;667.55;637.78;;;;;;;33.85;33.92;99203.94;5084901;27;102743;-66
2023/10/02 10:20:23;;;;;;;795.95;757.85;;;;;;;34.41;33.71;99195.53;5077927;27;104122;-65
2023/10/02 10:22:55;;;;;;;712.95;680.67;;;;;;;33.96;33.57;99190.16;5080716;27;103706;-65
2023/10/02 10:25:42;;;;;;;802.53;764.45;;;;;;;33.79;34.01;99198.38;5078569;27;103226;-60
2023/10/02 10:28:29;;;;;;;739.33;705.25;;;;;;;34.05;33.52;99188.63;5078522;27;103196;-60
2023/10/02 10:31:08;;;;;;;690.33;659.47;;;;;;;33.45;34.04;99185.69;5081835;27;102978;-60
2023/10/02 10:33:41;;;;;;;855.00;812.78;;;;;;;34.64;32.69;99184.34;5083214;27;103060;-65
2023/10/02 10:36:35;;;;;;;902.38;855.58;;;;;;;34.82;31.88;99175.78;5081205;27;103316;-65
2023/10/02 10:41:57;;;;;;;791.13;753.42;;;;;;;34.18;33.52;99184.75;5060488;27;103005;-65
2023/10/02 10:44:33;;;;;;;867.25;824.03;;;;;;;34.98;32.63;99167.75;5078027;27;103244;-61
2023/10/02 10:47:06;;;;;;;906.95;860.47;;;;;;;34.83;31.71;99171.97;5075245;27;103192;-61
2023/10/02 10:50:11;;;;;;;843.08;800.70;;;;;;;35.70;31.31;99171.84;5080643;27;103624;-65
2023/10/02 10:52:44;;;;;;;855.97;813.28;;;;;;;35.09;31.39;99161.31;5080817;27;103064;-65
2023/10/02 10:55:42;;;;;;;819.17;777.60;;;;;;;34.83;31.01;99166.50;5080709;27;103545;-65
2023/10/02 10:58:10;;;;;;;870.08;825.80;;;;;;;35.28;32.08;99162.63;5077971;27;103202;-61
2023/10/02 11:00:49;;;;;;;864.22;821.13;;;;;;;34.97;31.56;99158.69;5082359;27;102904;-65
2023/10/02 11:03:26;;;;;;;849.97;807.38;;;;;;;35.58;31.00;99156.59;5082846;27;103050;-65
2023/10/02 11:06:02;;;;;;;821.60;781.25;;;;;;;36.05;29.56;99158.38;5063653;27;103247;-65
2023/10/02 11:08:37;;;;;;;746.85;712.30;;;;;;;37.11;28.96;99150.66;5082317;27;103077;-65
2023/10/02 11:11:11;;;;;;;713.78;681.38;;;;;;;36.99;28.36;99155.59;5080708;27;103748;-61
2023/10/02 11:14:01;;;;;;;741.88;707.95;;;;;;;36.57;28.15;99154.88;5076219;27;104078;-60
2023/10/02 11:16:37;;;;;;;685.53;655.92;;;;;;;37.49;27.76;99156.81;5075691;27;103675;-60
2023/10/02 11:22:14;;;;;;;681.10;650.63;;;;;;;35.75;27.95;99155.38;5035453;27;103032;-61
2023/10/02 11:24:44;;;;;;;602.33;576.67;;;;;;;36.88;27.21;99145.63;5071403;27;103112;-62
2023/10/02 11:27:15;;;;;;;703.88;673.10;;;;;;;36.90;27.90;99143.44;5068302;27;104152;-61
2023/10/02 11:30:01;;;;;;;726.53;693.22;;;;;;;35.20;28.53;99138.38;5062405;27;103388;-61
2023/10/02 11:32:53;;;;;;;693.55;662.75;;;;;;;36.67;27.74;99138.38;5073638;27;103026;-62
2023/10/02 11:35:28;;;;;;;732.50;699.15;;;;;;;36.74;28.33;99133.47;5075000;27;103784;-62
2023/10/02 11:37:57;;;;;;;733.25;699.72;;;;;;;36.26;28.31;99128.25;5076391;27;104235;-61
2023/10/02 11:40:28;;;;;;;753.50;718.35;;;;;;;35.86;28.42;99124.13;5056757;27;103423;-61
2023/10/02 11:42:59;;;;;;;747.73;712.93;;;;;;;35.40;28.98;99117.41;5072023;27;102746;-61
2023/10/02 11:45:29;;;;;;;707.47;675.80;;;;;;;36.95;27.84;99113.16;5066034;27;104066;-61
2023/10/02 11:47:58;;;;;;;733.78;700.15;;;;;;;36.45;28.47;99115.69;5065475;27;103279;-61
2023/10/02 11:50:26;;;;;;;774.43;737.63;;;;;;;36.73;28.83;99104.28;5051034;27;104210;-61
2023/10/02 11:52:55;;;;;;;754.38;719.13;;;;;;;37.15;28.13;99096.72;5060036;27;103933;-61
2023/10/02 11:55:24;;;;;;;767.90;732.42;;;;;;;37.07;28.10;99100.00;5072040;27;103532;-60